createdAt,value
2023-01-18T00:55:43.129Z,98914.50
2023-01-18T00:58:15.585Z,98917.88
2023-01-18T01:00:45.469Z,98924.69
2023-01-18T01:03:16.410Z,98932.28
2023-01-18T01:06:10.589Z,98928.72
2023-01-18T01:08:43.411Z,98927.72
2023-01-18T01:11:15.108Z,98926.84
2023-01-18T01:13:59.865Z,98928.47
2023-01-18T01:16:42.089Z,98926.72
2023-01-18T01:19:24.291Z,98933.63
2023-01-18T01:22:06.606Z,98933.63
2023-01-18T01:24:48.767Z,98937.03
2023-01-18T01:27:18.611Z,98924.91
2023-01-18T01:29:52.686Z,98930.97
2023-01-18T01:32:22.450Z,98924.91
2023-01-18T01:34:52.189Z,98930.09
2023-01-18T01:37:21.919Z,98926.56
2023-01-18T01:39:51.704Z,98925.75
2023-01-18T01:42:21.499Z,98923.16
2023-01-18T01:44:54.673Z,98924.91
2023-01-18T01:47:42.832Z,98925.78
2023-01-18T01:50:22.655Z,98922.31
2023-01-18T01:52:52.722Z,98923.97
2023-01-18T01:55:27.492Z,98920.44
2023-01-18T01:58:03.407Z,98919.50
2023-01-18T02:00:36.584Z,98924.56
2023-01-18T02:03:10.381Z,98920.16
2023-01-18T02:05:46.527Z,98923.41
2023-01-18T02:08:22.876Z,98924.97
2023-01-18T02:10:53.455Z,98927.38
2023-01-18T02:13:25.822Z,98922.94
2023-01-18T02:16:08.431Z,98935.81
2023-01-18T02:18:48.851Z,98930.63
2023-01-18T02:21:21.398Z,98928.88
2023-01-18T02:24:23.733Z,98928.88
2023-01-18T02:26:59.940Z,98929.66
2023-01-18T02:29:55.585Z,98939.06
2023-01-18T02:32:41.762Z,98938.13
2023-01-18T02:35:14.867Z,98936.34
2023-01-18T02:37:51.832Z,98940.72
2023-01-18T02:40:27.169Z,98948.50
2023-01-18T02:43:11.458Z,98937.19
2023-01-18T02:45:59.304Z,98928.53
2023-01-18T02:48:36.237Z,98937.13
2023-01-18T02:51:06.952Z,98943.13
2023-01-18T02:53:41.494Z,98941.41
2023-01-18T02:56:16.466Z,98939.69
2023-01-18T02:58:49.998Z,98935.28
2023-01-18T03:01:30.393Z,98939.66
2023-01-18T03:04:04.539Z,98942.19
2023-01-18T03:06:36.046Z,98950.03
2023-01-18T03:09:06.200Z,98947.44
2023-01-18T03:11:43.523Z,98944.88
2023-01-18T03:14:21.603Z,98940.63
2023-01-18T03:17:01.529Z,98949.25
2023-01-18T03:19:52.649Z,98945.84
2023-01-18T03:22:42.608Z,98938.03
2023-01-18T03:25:13.230Z,98951.03
2023-01-18T03:27:58.263Z,98943.22
2023-01-18T03:30:40.621Z,98951.78
2023-01-18T03:33:26.253Z,98948.31
2023-01-18T03:35:58.252Z,98941.41
2023-01-18T03:38:28.799Z,98950.16
2023-01-18T03:41:00.113Z,98947.72
2023-01-18T03:43:36.492Z,98953.03
2023-01-18T03:46:08.248Z,98960.03
2023-01-18T03:48:40.668Z,98958.38
2023-01-18T03:51:18.829Z,98968.88
2023-01-18T03:53:58.329Z,98964.63
2023-01-18T03:56:37.494Z,98961.19
2023-01-18T03:59:09.028Z,98961.16
2023-01-18T04:01:39.487Z,98952.50
2023-01-18T04:04:11.860Z,98964.56
2023-01-18T04:06:41.727Z,98961.84
2023-01-18T04:09:11.963Z,98957.34
2023-01-18T04:11:41.723Z,98951.13
2023-01-18T04:14:11.493Z,98959.81
2023-01-18T04:16:41.242Z,98964.94
2023-01-18T04:19:13.655Z,98957.16
2023-01-18T04:21:46.415Z,98963.19
2023-01-18T04:24:17.379Z,98957.09
2023-01-18T04:26:47.126Z,98963.03
2023-01-18T04:29:17.356Z,98961.28
2023-01-18T04:31:47.325Z,98960.44
2023-01-18T04:34:20.460Z,98964.75
2023-01-18T04:36:50.227Z,98961.28
2023-01-18T04:39:20.537Z,98961.94
2023-01-18T04:41:50.320Z,98966.09
2023-01-18T04:44:20.318Z,98963.41
2023-01-18T04:46:51.185Z,98966.81
2023-01-18T04:49:24.276Z,98960.69
2023-01-18T04:51:54.037Z,98969.31
2023-01-18T04:54:23.785Z,98972.72
2023-01-18T04:56:53.792Z,98971.06
2023-01-18T04:59:23.550Z,98966.75
2023-01-18T05:01:53.295Z,98978.00
2023-01-18T05:04:25.745Z,98977.13
2023-01-18T05:06:55.499Z,98969.31
2023-01-18T05:09:25.256Z,98982.31
2023-01-18T05:11:54.997Z,98977.09
2023-01-18T05:14:24.771Z,98980.47
2023-01-18T05:16:54.509Z,98993.31
2023-01-18T05:19:30.749Z,98984.66
2023-01-18T05:22:00.499Z,98996.75
2023-01-18T05:24:30.366Z,99001.94
2023-01-18T05:27:00.252Z,98997.66
2023-01-18T05:29:30.131Z,98989.13
2023-01-18T05:31:59.892Z,98999.50
2023-01-18T05:34:32.238Z,99009.09
2023-01-18T05:37:02.054Z,99013.41
2023-01-18T05:39:31.814Z,99017.81
2023-01-18T05:42:01.717Z,99029.06
2023-01-18T05:44:31.482Z,99032.56
2023-01-18T05:47:01.907Z,99026.63
2023-01-18T05:49:34.672Z,99024.94
2023-01-18T05:52:04.751Z,99024.94
2023-01-18T05:54:34.638Z,99031.97
2023-01-18T05:57:04.525Z,99032.88
2023-01-18T05:59:34.477Z,99031.03
2023-01-18T06:02:04.428Z,99034.31
2023-01-18T06:04:36.967Z,99036.03
2023-01-18T06:07:06.889Z,99040.34
2023-01-18T06:09:36.649Z,99047.16
2023-01-18T06:12:10.378Z,99047.16
2023-01-18T06:14:40.149Z,99054.06
2023-01-18T06:17:09.954Z,99052.22
2023-01-18T06:19:42.398Z,99055.63
2023-01-18T06:22:12.217Z,99053.88
2023-01-18T06:24:41.971Z,99055.50
2023-01-18T06:27:11.750Z,99058.94
2023-01-18T06:29:41.536Z,99064.03
2023-01-18T06:32:11.290Z,99060.56
2023-01-18T06:34:43.670Z,99063.97
2023-01-18T06:37:13.471Z,99068.28
2023-01-18T06:39:43.271Z,99074.34
2023-01-18T06:42:13.027Z,99070.88
2023-01-18T06:44:42.788Z,99074.34
2023-01-18T06:47:12.554Z,99076.13
2023-01-18T06:49:44.935Z,99076.13
2023-01-18T06:52:14.686Z,99082.19
2023-01-18T06:54:44.997Z,99088.25
2023-01-18T06:57:15.621Z,99093.44
2023-01-18T06:59:45.378Z,99093.44
2023-01-18T07:02:18.109Z,99099.44
2023-01-18T07:04:50.490Z,99100.25
2023-01-18T07:07:20.326Z,99100.97
2023-01-18T07:09:50.162Z,99099.16
2023-01-18T07:12:19.919Z,99106.06
2023-01-18T07:14:49.751Z,99110.38
2023-01-18T07:17:19.701Z,99117.19
2023-01-18T07:19:52.053Z,99114.59
2023-01-18T07:22:21.948Z,99119.69
2023-01-18T07:24:51.761Z,99124.00
2023-01-18T07:27:21.534Z,99128.22
2023-01-18T07:29:51.274Z,99129.06
2023-01-18T07:32:21.010Z,99128.97
2023-01-18T07:34:53.366Z,99133.25
2023-01-18T07:37:23.142Z,99134.00
2023-01-18T07:39:52.886Z,99142.56
2023-01-18T07:42:22.673Z,99134.69
2023-01-18T07:44:52.438Z,99145.03
2023-01-18T07:47:22.213Z,99143.28
2023-01-18T07:49:54.569Z,99152.69
2023-01-18T07:52:24.309Z,99149.06
2023-01-18T07:54:54.098Z,99151.66
2023-01-18T07:57:23.993Z,99155.91
2023-01-18T07:59:54.158Z,99159.22
2023-01-18T08:02:24.402Z,99160.13
2023-01-18T08:04:57.039Z,99161.00
2023-01-18T08:07:26.894Z,99157.56
2023-01-18T08:09:57.996Z,99168.91
2023-01-18T08:12:28.125Z,99167.34
2023-01-18T08:14:57.877Z,99164.78
2023-01-18T08:17:28.078Z,99162.28
2023-01-18T08:20:00.425Z,99166.72
2023-01-18T08:22:30.259Z,99164.16
2023-01-18T08:25:00.202Z,99171.25
2023-01-18T08:27:46.380Z,99173.09
2023-01-18T08:30:17.092Z,99176.56
2023-01-18T08:32:46.894Z,99173.19
2023-01-18T08:35:19.402Z,99162.97
2023-01-18T08:37:49.175Z,99171.03
2023-01-18T08:40:19.066Z,99178.25
2023-01-18T08:42:51.301Z,99178.63
2023-01-18T08:45:21.145Z,99190.34
2023-01-18T08:47:50.935Z,99190.00
2023-01-18T08:50:23.404Z,99187.09
2023-01-18T08:52:54.220Z,99189.41
2023-01-18T08:55:24.841Z,99189.97
2023-01-18T08:57:57.765Z,99198.28
2023-01-18T09:00:30.299Z,99203.09
2023-01-18T09:03:02.171Z,99201.66
2023-01-18T09:05:36.832Z,99200.97
2023-01-18T09:08:06.673Z,99201.16
2023-01-18T09:10:37.683Z,99206.50
2023-01-18T09:13:08.443Z,99204.97
2023-01-18T09:15:38.238Z,99211.22
2023-01-18T09:18:08.843Z,99200.94
2023-01-18T09:20:43.608Z,99213.09
2023-01-18T09:23:13.460Z,99216.66
2023-01-18T09:25:43.352Z,99211.44
2023-01-18T09:28:13.233Z,99210.59
2023-01-18T09:30:43.010Z,99210.56
2023-01-18T09:33:13.107Z,99212.28
2023-01-18T09:35:45.562Z,99223.56
2023-01-18T09:38:16.223Z,99220.00
2023-01-18T09:40:47.711Z,99230.41
2023-01-18T09:43:23.777Z,99227.72
2023-01-18T09:45:53.642Z,99233.66
2023-01-18T09:48:32.415Z,99224.91
2023-01-18T09:51:11.498Z,99239.63
2023-01-18T09:53:57.193Z,99246.53
2023-01-18T09:56:30.379Z,99236.91
2023-01-18T09:59:14.798Z,99243.78
2023-01-18T10:01:45.031Z,99240.25
2023-01-18T10:04:20.388Z,99248.09
2023-01-18T10:06:58.389Z,99246.47
2023-01-18T10:09:32.575Z,99242.13
2023-01-18T10:12:03.984Z,99242.25
2023-01-18T10:14:46.650Z,99252.72
2023-01-18T10:17:20.822Z,99244.91
2023-01-18T10:19:50.735Z,99242.41
2023-01-18T10:22:28.337Z,99245.00
2023-01-18T10:25:04.411Z,99247.63
2023-01-18T10:27:48.198Z,99254.72
2023-01-18T10:30:43.941Z,99254.75
2023-01-18T10:33:21.453Z,99255.72
2023-01-18T10:35:54.055Z,99256.66
2023-01-18T10:38:30.479Z,99249.84
2023-01-18T10:41:01.816Z,99258.66
2023-01-18T10:43:34.575Z,99257.03
2023-01-18T10:46:04.405Z,99255.47
2023-01-18T10:48:36.439Z,99243.44
2023-01-18T10:51:09.142Z,99246.25
2023-01-18T10:53:42.556Z,99236.78
2023-01-18T10:56:19.470Z,99245.56
2023-01-18T10:58:57.922Z,99234.41
2023-01-18T11:01:30.387Z,99232.69
2023-01-18T11:04:06.115Z,99234.47
2023-01-18T11:06:48.383Z,99237.19
2023-01-18T11:09:44.775Z,99236.50
2023-01-18T11:12:37.708Z,99232.25
2023-01-18T11:15:26.863Z,99235.03
2023-01-18T11:18:06.649Z,99231.53
2023-01-18T11:20:44.740Z,99235.09
2023-01-18T11:23:21.624Z,99226.44
2023-01-18T11:26:00.901Z,99223.06
2023-01-18T11:28:37.457Z,99233.63
2023-01-18T11:31:13.849Z,99223.28
2023-01-18T11:33:52.841Z,99220.84
2023-01-18T11:36:35.827Z,99216.66
2023-01-18T11:39:44.752Z,99226.31
2023-01-18T11:42:27.128Z,99219.50
2023-01-18T11:45:08.018Z,99217.06
2023-01-18T11:47:49.183Z,99212.84
2023-01-18T11:50:30.834Z,99212.16
2023-01-18T11:53:07.715Z,99214.91
2023-01-18T11:55:47.719Z,99223.75
2023-01-18T11:58:28.473Z,99212.50
2023-01-18T12:01:11.399Z,99223.97
2023-01-18T12:03:54.625Z,99215.44
2023-01-18T12:06:39.094Z,99212.13
2023-01-18T12:09:31.894Z,99207.94
2023-01-18T12:12:19.465Z,99195.00
2023-01-18T12:15:03.541Z,99198.66
2023-01-18T12:17:56.469Z,99203.94
2023-01-18T12:20:37.107Z,99203.25
2023-01-18T12:23:36.113Z,99203.38
2023-01-18T12:26:24.002Z,99199.91
2023-01-18T12:29:20.004Z,99202.59
2023-01-18T12:32:02.878Z,99196.53
2023-01-18T12:34:43.221Z,99193.13
2023-01-18T12:37:32.329Z,99195.88
2023-01-18T12:40:21.533Z,99197.75
2023-01-18T12:43:03.306Z,99204.81
2023-01-18T12:45:39.555Z,99198.78
2023-01-18T12:48:19.227Z,99193.56
2023-01-18T12:50:52.107Z,99195.34
2023-01-18T12:53:32.018Z,99198.88
2023-01-18T12:56:14.813Z,99197.94
2023-01-18T12:58:45.291Z,99191.84
2023-01-18T13:01:21.943Z,99188.38
2023-01-18T13:03:56.742Z,99186.66
2023-01-18T13:06:28.456Z,99177.97
2023-01-18T13:09:03.856Z,99166.69
2023-01-18T13:11:37.626Z,99186.66
2023-01-18T13:14:17.844Z,99173.66
2023-01-18T13:16:53.727Z,99174.50
2023-01-18T13:19:29.578Z,99174.56
2023-01-18T13:22:07.427Z,99172.75
2023-01-18T13:24:58.290Z,99171.84
2023-01-18T13:27:28.075Z,99153.59
2023-01-18T13:30:09.678Z,99163.16
2023-01-18T13:32:42.512Z,99157.06
2023-01-18T13:35:25.870Z,99157.94
2023-01-18T13:37:58.615Z,99162.28
2023-01-18T13:40:40.500Z,99156.19
2023-01-18T13:43:34.028Z,99165.72
2023-01-18T13:46:06.603Z,99160.47
2023-01-18T13:48:50.596Z,99151.78
2023-01-18T13:51:54.069Z,99147.34
2023-01-18T13:54:53.784Z,99142.09
2023-01-18T13:57:26.917Z,99136.88
2023-01-18T13:59:56.826Z,99131.72
2023-01-18T14:02:32.201Z,99130.88
2023-01-18T14:05:04.629Z,99129.28
2023-01-18T14:07:43.400Z,99128.41
2023-01-18T14:10:33.409Z,99140.66
2023-01-18T14:13:07.454Z,99123.28
2023-01-18T14:15:51.620Z,99127.69
2023-01-18T14:18:25.685Z,99131.97
2023-01-18T14:21:13.668Z,99125.91
2023-01-18T14:24:06.267Z,99122.47
2023-01-18T14:26:38.428Z,99121.56
2023-01-18T14:29:17.606Z,99126.84
2023-01-18T14:31:51.609Z,99128.56
2023-01-18T14:34:42.998Z,99132.97
2023-01-18T14:37:28.895Z,99126.91
2023-01-18T14:40:21.654Z,99122.56
2023-01-18T14:42:55.318Z,99126.03
2023-01-18T14:45:32.805Z,99130.41
2023-01-18T14:48:04.446Z,99134.72
2023-01-18T14:50:39.314Z,99134.72
2023-01-18T14:53:16.845Z,99144.22
2023-01-18T14:55:46.651Z,99152.03
2023-01-18T14:58:19.386Z,99152.81
2023-01-18T15:00:54.311Z,99151.84
2023-01-18T15:03:27.520Z,99162.09
2023-01-18T15:06:02.790Z,99167.16
2023-01-18T15:08:35.290Z,99154.00
2023-01-18T15:11:07.947Z,99167.84
2023-01-18T15:13:47.636Z,99162.59
2023-01-18T15:16:24.040Z,99170.31
2023-01-18T15:18:55.647Z,99166.78
2023-01-18T15:21:27.612Z,99164.97
2023-01-18T15:24:04.527Z,99164.97
2023-01-18T15:26:46.018Z,99165.84
2023-01-18T15:29:20.143Z,99164.97
2023-01-18T15:31:58.118Z,99161.44
2023-01-18T15:34:33.434Z,99161.44
2023-01-18T15:37:04.635Z,99165.66
2023-01-18T15:39:35.302Z,99172.47
2023-01-18T15:42:08.184Z,99162.81
2023-01-18T15:44:45.029Z,99177.44
2023-01-18T15:47:26.184Z,99167.75
2023-01-18T15:49:58.876Z,99178.84
2023-01-18T15:52:40.392Z,99182.28
2023-01-18T15:55:21.665Z,99174.28
2023-01-18T15:58:02.630Z,99187.16
2023-01-18T16:00:37.074Z,99180.84
2023-01-18T16:03:19.870Z,99180.66
2023-01-18T16:06:11.252Z,99184.84
2023-01-18T16:08:58.456Z,99169.00
2023-01-18T16:11:32.009Z,99169.69
2023-01-18T16:14:07.845Z,99167.00
2023-01-18T16:16:40.970Z,99164.38
2023-01-18T16:19:24.948Z,99170.47
2023-01-18T16:21:59.203Z,99167.03
2023-01-18T16:24:38.631Z,99174.91
2023-01-18T16:27:13.227Z,99175.84
2023-01-18T16:29:48.268Z,99169.88
2023-01-18T16:32:32.267Z,99175.94
2023-01-18T16:35:18.749Z,99173.34
2023-01-18T16:37:48.822Z,99187.19
2023-01-18T16:40:21.453Z,99174.25
2023-01-18T16:43:01.647Z,99192.50
2023-01-18T16:45:35.152Z,99176.88
2023-01-18T16:48:07.240Z,99175.91
2023-01-18T16:50:42.063Z,99176.69
2023-01-18T16:53:14.185Z,99178.44
2023-01-18T16:55:45.549Z,99176.59
2023-01-18T16:58:16.814Z,99181.81
2023-01-18T17:00:53.823Z,99192.19
2023-01-18T17:03:23.842Z,99187.88
2023-01-18T17:05:57.976Z,99189.63
2023-01-18T17:08:27.888Z,99187.00
2023-01-18T17:10:57.825Z,99190.50
2023-01-18T17:13:28.180Z,99174.91
2023-01-18T17:15:58.110Z,99173.16
2023-01-18T17:18:28.451Z,99186.22
2023-01-18T17:21:01.576Z,99169.69
2023-01-18T17:23:33.162Z,99194.84
2023-01-18T17:26:03.341Z,99191.25
2023-01-18T17:28:33.650Z,99193.75
2023-01-18T17:31:03.676Z,99201.50
2023-01-18T17:33:38.891Z,99198.84
2023-01-18T17:36:12.061Z,99193.69
2023-01-18T17:38:42.011Z,99195.41
2023-01-18T17:41:26.837Z,99203.25
2023-01-18T17:43:57.145Z,99195.53
2023-01-18T17:46:27.306Z,99198.28
2023-01-18T17:48:57.347Z,99197.50
2023-01-18T17:51:29.860Z,99201.94
2023-01-18T17:54:02.076Z,99205.47
2023-01-18T17:56:32.130Z,99194.31
2023-01-18T17:59:01.940Z,99207.38
2023-01-18T18:01:31.934Z,99212.63
2023-01-18T18:04:01.859Z,99203.00
2023-01-18T18:06:36.302Z,99207.41
2023-01-18T18:09:07.170Z,99211.75
2023-01-18T18:11:37.231Z,99216.16
2023-01-18T18:14:06.984Z,99223.16
2023-01-18T18:16:43.254Z,99229.22
2023-01-18T18:19:14.764Z,99232.72
2023-01-18T18:21:48.061Z,99234.44
2023-01-18T18:24:17.837Z,99227.47
2023-01-18T18:26:51.259Z,99230.09
2023-01-18T18:29:21.482Z,99224.91
2023-01-18T18:31:51.386Z,99229.28
2023-01-18T18:34:21.288Z,99234.50
2023-01-18T18:36:53.806Z,99231.06
2023-01-18T18:39:23.835Z,99237.09
2023-01-18T18:41:53.658Z,99240.59
2023-01-18T18:44:23.621Z,99240.50
2023-01-18T18:46:53.408Z,99243.09
2023-01-18T18:49:23.198Z,99256.97
2023-01-18T18:51:56.251Z,99264.03
2023-01-18T18:54:26.071Z,99254.56
2023-01-18T18:57:00.312Z,99282.41
2023-01-18T18:59:31.435Z,99279.00
2023-01-18T19:02:09.144Z,99278.19
2023-01-18T19:04:39.064Z,99280.84
2023-01-18T19:07:11.669Z,99277.28
2023-01-18T19:09:41.621Z,99276.41
2023-01-18T19:12:12.078Z,99282.41
2023-01-18T19:14:44.942Z,99276.38
2023-01-18T19:17:28.960Z,99279.78
2023-01-18T19:20:00.893Z,99262.47
2023-01-18T19:22:33.423Z,99275.59
2023-01-18T19:25:05.883Z,99279.06
2023-01-18T19:27:35.931Z,99273.03
2023-01-18T19:30:12.087Z,99261.84
2023-01-18T19:32:42.198Z,99282.75
2023-01-18T19:35:13.716Z,99283.66
2023-01-18T19:37:46.516Z,99284.56
2023-01-18T19:40:17.565Z,99286.41
2023-01-18T19:42:54.720Z,99308.13
2023-01-18T19:45:28.832Z,99294.28
2023-01-18T19:48:00.729Z,99301.28
2023-01-18T19:50:32.651Z,99300.44
2023-01-18T19:53:05.286Z,99299.69
2023-01-18T19:55:37.402Z,99308.41
2023-01-18T19:58:09.715Z,99308.41
2023-01-18T20:00:41.644Z,99309.34
2023-01-18T20:03:15.600Z,99309.34
2023-01-18T20:06:25.319Z,99311.00
2023-01-18T20:08:57.891Z,99309.19
2023-01-18T20:11:27.785Z,99326.59
2023-01-18T20:13:57.595Z,99322.22
2023-01-18T20:16:27.485Z,99326.59
2023-01-18T20:18:57.407Z,99328.34
2023-01-18T20:21:27.264Z,99337.13
2023-01-18T20:24:01.112Z,99344.06
2023-01-18T20:26:37.262Z,99340.66
2023-01-18T20:29:08.402Z,99339.81
2023-01-18T20:31:39.587Z,99351.16
2023-01-18T20:34:12.331Z,99345.09
2023-01-18T20:36:42.262Z,99349.44
2023-01-18T20:39:16.443Z,99353.94
2023-01-18T20:41:48.860Z,99351.38
2023-01-18T20:44:19.006Z,99353.16
2023-01-18T20:46:55.164Z,99354.03
2023-01-18T20:49:37.298Z,99361.84
2023-01-18T20:52:08.814Z,99367.81
2023-01-18T20:54:41.592Z,99367.75
2023-01-18T20:57:11.540Z,99367.75
2023-01-18T20:59:41.539Z,99370.31
2023-01-18T21:02:12.921Z,99373.88
2023-01-18T21:04:47.511Z,99382.59
2023-01-18T21:07:17.508Z,99380.00
2023-01-18T21:09:49.907Z,99384.38
2023-01-18T21:12:19.888Z,99395.63
2023-01-18T21:14:50.005Z,99395.63
2023-01-18T21:17:20.353Z,99407.75
2023-01-18T21:19:53.592Z,99416.41
2023-01-18T21:22:24.365Z,99425.16
2023-01-18T21:24:57.264Z,99431.34
2023-01-18T21:27:28.811Z,99417.53
2023-01-18T21:29:58.676Z,99418.50
2023-01-18T21:32:28.679Z,99419.47
2023-01-18T21:34:58.738Z,99414.38
2023-01-18T21:37:29.817Z,99424.03
2023-01-18T21:40:02.206Z,99431.06
2023-01-18T21:42:44.510Z,99435.31
2023-01-18T21:45:27.249Z,99434.38
2023-01-18T21:47:57.068Z,99434.31
2023-01-18T21:50:39.260Z,99432.56
2023-01-18T21:53:24.535Z,99431.53
2023-01-18T21:55:56.936Z,99439.31
2023-01-18T21:58:40.360Z,99437.50
2023-01-18T22:01:13.610Z,99445.19
2023-01-18T22:04:04.448Z,99452.06
2023-01-18T22:06:34.254Z,99464.13
2023-01-18T22:09:04.772Z,99457.03
2023-01-18T22:11:37.232Z,99457.81
2023-01-18T22:14:07.358Z,99463.91
2023-01-18T22:16:37.464Z,99463.91
2023-01-18T22:19:07.704Z,99469.06
2023-01-18T22:21:37.668Z,99478.53
2023-01-18T22:24:08.127Z,99472.38
2023-01-18T22:26:41.022Z,99477.53
2023-01-18T22:29:11.369Z,99480.00
2023-01-18T22:31:41.421Z,99487.00
2023-01-18T22:34:21.382Z,99490.53
2023-01-18T22:36:51.139Z,99504.44
2023-01-18T22:39:20.975Z,99501.13
2023-01-18T22:41:53.328Z,99499.50
2023-01-18T22:44:23.214Z,99490.16
2023-01-18T22:46:53.073Z,99495.47
2023-01-18T22:49:22.949Z,99498.06
2023-01-18T22:51:52.744Z,99484.94
2023-01-18T22:54:23.168Z,99489.28
2023-01-18T22:56:55.557Z,99483.06
2023-01-18T22:59:25.341Z,99496.03
2023-01-18T23:01:55.160Z,99502.00
2023-01-18T23:04:24.964Z,99500.19
2023-01-18T23:06:57.971Z,99505.31
2023-01-18T23:09:28.148Z,99509.53
2023-01-18T23:12:00.546Z,99510.41
2023-01-18T23:14:42.698Z,99516.31
2023-01-18T23:17:26.374Z,99519.81
2023-01-18T23:19:56.103Z,99518.91
2023-01-18T23:22:25.871Z,99518.13
2023-01-18T23:24:55.649Z,99520.72
2023-01-18T23:27:28.217Z,99517.97
2023-01-18T23:29:59.365Z,99519.59
2023-01-18T23:32:30.667Z,99516.03
2023-01-18T23:35:01.225Z,99522.00
2023-01-18T23:37:31.302Z,99515.03
2023-01-18T23:40:13.471Z,99515.03
2023-01-18T23:42:58.376Z,99522.84
2023-01-18T23:45:40.657Z,99529.78
2023-01-18T23:48:25.147Z,99524.50
2023-01-18T23:51:07.334Z,99526.25
2023-01-18T23:53:49.477Z,99536.66
2023-01-18T23:56:19.274Z,99533.13
2023-01-18T23:58:51.633Z,99528.81
